Time;durP1;ratioP1;P1;durP2;ratioP2;P2;SDS_P1;SDS_P2;PMS_P1;PMS_P2;Temp;Humidity;BMP_temperature;BMP_pressure;BME280_temperature;BME280_humidity;BME280_pressure;Samples;Min_cycle;Max_cycle;Signal;HPM_P1;HPM_P2
2023/03/03 09:58:54;;;;;;;69.43;40.38;;;6.40;99.90;;;;;;5067363;28;20974;-61
2023/03/03 10:01:49;;;;;;;57.60;37.90;;;6.40;99.90;;;;;;5067969;28;20025;-63
2023/03/03 10:04:23;;;;;;;65.78;41.13;;;6.50;99.90;;;;;;5052444;28;20033;-65
2023/03/03 10:07:18;;;;;;;67.63;42.05;;;6.90;99.90;;;;;;5055814;28;20395;-63
2023/03/03 10:10:15;;;;;;;60.92;40.58;;;7.20;99.90;;;;;;5045630;28;20064;-63
2023/03/03 10:13:22;;;;;;;52.45;37.97;;;7.60;99.90;;;;;;5046395;28;20055;-63
2023/03/03 10:15:53;;;;;;;60.65;40.42;;;7.80;99.90;;;;;;5047195;28;20028;-67
2023/03/03 10:18:44;;;;;;;52.25;36.30;;;8.10;99.90;;;;;;5057133;28;20543;-68
2023/03/03 10:21:26;;;;;;;55.47;39.90;;;8.10;99.90;;;;;;5042755;28;20044;-65
2023/03/03 10:23:56;;;;;;;54.05;37.30;;;8.20;99.90;;;;;;5064652;28;20033;-63
2023/03/03 10:26:22;;;;;;;62.78;40.55;;;8.30;99.90;;;;;;5055445;28;20383;-62
2023/03/03 10:28:52;;;;;;;49.08;35.47;;;8.30;99.90;;;;;;5047821;28;20021;-62
2023/03/03 10:31:53;;;;;;;50.55;35.90;;;8.30;99.90;;;;;;5048936;28;20044;-61
2023/03/03 10:34:51;;;;;;;41.45;31.65;;;8.50;99.90;;;;;;5047364;28;20079;-74
2023/03/03 10:37:22;;;;;;;37.65;27.77;;;8.70;99.90;;;;;;5046762;28;20490;-66
2023/03/03 10:40:19;;;;;;;41.38;30.27;;;8.80;99.90;;;;;;5044338;28;20025;-69
2023/03/03 10:43:29;;;;;;;47.42;32.67;;;9.00;99.90;;;;;;5047561;28;20429;-68
2023/03/03 10:46:04;;;;;;;39.75;29.35;;;9.00;99.90;;;;;;5047306;28;20033;-64
2023/03/03 10:48:41;;;;;;;34.33;27.23;;;9.00;99.90;;;;;;5049333;28;20028;-64
2023/03/03 10:51:33;;;;;;;41.97;30.02;;;9.10;99.90;;;;;;5047547;28;20017;-65
2023/03/03 10:54:20;;;;;;;40.03;27.92;;;9.10;99.90;;;;;;5047988;28;20116;-71
2023/03/03 10:57:11;;;;;;;35.88;26.88;;;9.60;99.90;;;;;;5037168;28;20049;-68
2023/03/03 10:59:48;;;;;;;32.92;26.00;;;10.10;99.90;;;;;;5044422;28;20025;-67
2023/03/03 11:02:40;;;;;;;35.00;26.17;;;10.50;99.90;;;;;;5041139;28;20108;-67
2023/03/03 11:05:40;;;;;;;35.05;26.02;;;11.00;99.90;;;;;;5044916;28;20383;-63
2023/03/03 11:08:16;;;;;;;29.42;22.90;;;11.30;99.90;;;;;;5042572;28;20120;-68
2023/03/03 11:11:07;;;;;;;28.92;23.45;;;11.30;99.90;;;;;;5026683;28;20029;-64
2023/03/03 11:14:02;;;;;;;30.75;24.38;;;11.20;99.90;;;;;;5018976;28;20030;-69
2023/03/03 11:16:33;;;;;;;30.83;23.90;;;11.20;99.90;;;;;;5020154;28;20030;-68
2023/03/03 11:19:34;;;;;;;27.17;23.35;;;11.10;99.90;;;;;;5031178;28;20025;-70
2023/03/03 11:22:46;;;;;;;29.83;24.88;;;11.10;99.90;;;;;;5034970;28;20021;-62
2023/03/03 11:25:25;;;;;;;28.52;23.00;;;11.10;99.90;;;;;;5013037;28;20112;-69
2023/03/03 11:28:09;;;;;;;28.27;22.98;;;11.10;99.90;;;;;;5014073;28;20511;-62
2023/03/03 11:31:00;;;;;;;32.67;26.42;;;11.00;99.90;;;;;;5015100;28;20030;-65
2023/03/03 11:33:57;;;;;;;37.67;27.80;;;10.80;99.90;;;;;;5029891;28;20053;-66
2023/03/03 11:36:38;;;;;;;37.70;27.08;;;10.40;99.90;;;;;;5028599;28;20034;-67
2023/03/03 11:39:15;;;;;;;40.90;30.23;;;10.30;99.90;;;;;;5024908;28;20022;-67
2023/03/03 11:41:46;;;;;;;42.10;30.63;;;10.20;99.90;;;;;;5017893;28;20030;-68
2023/03/03 11:44:28;;;;;;;49.35;35.80;;;10.10;99.90;;;;;;5041290;28;20585;-60
2023/03/03 11:47:03;;;;;;;67.20;44.38;;;9.90;99.90;;;;;;5047942;28;21541;-63
2023/03/03 11:49:44;;;;;;;58.20;39.05;;;9.60;99.90;;;;;;5026614;28;20029;-66
2023/03/03 11:52:30;;;;;;;46.67;34.17;;;9.50;99.90;;;;;;5026196;28;20026;-65
2023/03/03 11:55:14;;;;;;;49.33;34.33;;;9.40;99.90;;;;;;5040468;28;20033;-66
2023/03/03 11:57:46;;;;;;;38.28;28.83;;;9.50;99.90;;;;;;5051434;28;20140;-68
2023/03/03 12:00:15;;;;;;;35.70;26.77;;;9.60;99.90;;;;;;5051562;28;20467;-71
2023/03/03 12:03:12;;;;;;;34.63;26.02;;;9.70;99.90;;;;;;5025723;28;20099;-65
2023/03/03 12:06:02;;;;;;;42.90;28.13;;;9.70;99.90;;;;;;5040152;28;20025;-68
2023/03/03 12:08:56;;;;;;;42.08;28.85;;;9.70;99.90;;;;;;5034823;28;20025;-68
2023/03/03 12:11:34;;;;;;;36.10;27.05;;;9.50;99.90;;;;;;5024318;28;20030;-62
2023/03/03 12:14:16;;;;;;;36.22;26.67;;;9.40;99.90;;;;;;5046616;28;20051;-65
2023/03/03 12:16:53;;;;;;;33.25;25.65;;;9.40;99.90;;;;;;5020774;28;20041;-66
2023/03/03 12:19:28;;;;;;;34.00;24.67;;;9.60;99.90;;;;;;5028065;28;20037;-63
2023/03/03 12:22:23;;;;;;;36.78;25.05;;;9.60;99.90;;;;;;5026954;28;20021;-64
2023/03/03 12:25:07;;;;;;;34.35;24.35;;;9.60;99.90;;;;;;5053741;28;20071;-66
2023/03/03 12:27:53;;;;;;;31.52;25.08;;;9.70;99.90;;;;;;5053083;28;20028;-69
2023/03/03 12:30:26;;;;;;;32.25;24.20;;;9.80;99.90;;;;;;5051598;28;20106;-64
2023/03/03 12:33:16;;;;;;;29.43;24.00;;;9.80;99.90;;;;;;5033284;28;20092;-64
2023/03/03 12:35:47;;;;;;;36.30;26.08;;;9.90;99.90;;;;;;5033353;28;20286;-65
2023/03/03 12:38:50;;;;;;;34.00;24.65;;;9.90;99.90;;;;;;5033365;28;20064;-63
2023/03/03 12:41:34;;;;;;;39.80;31.02;;;10.00;99.90;;;;;;5032373;28;20502;-63
2023/03/03 12:44:21;;;;;;;35.95;27.17;;;10.00;99.90;;;;;;5033040;28;20104;-66
2023/03/03 12:47:10;;;;;;;44.30;31.55;;;10.20;99.90;;;;;;5032865;28;20033;-62
2023/03/03 12:49:39;;;;;;;47.40;34.40;;;10.30;99.90;;;;;;5030918;28;20553;-66
2023/03/03 12:52:19;;;;;;;41.30;30.88;;;10.10;99.90;;;;;;5033981;28;20026;-66
2023/03/03 12:54:45;;;;;;;45.10;34.05;;;10.10;99.90;;;;;;5033519;28;20116;-63
2023/03/03 12:57:55;;;;;;;45.17;35.28;;;10.10;99.90;;;;;;5032324;28;20571;-62
2023/03/03 13:00:29;;;;;;;52.55;35.05;;;9.80;99.90;;;;;;5030423;28;20361;-65
2023/03/03 13:03:00;;;;;;;57.85;43.63;;;9.80;99.90;;;;;;5030941;28;20063;-63
2023/03/03 13:05:39;;;;;;;44.60;34.33;;;9.50;99.90;;;;;;5032859;28;20041;-62
2023/03/03 13:08:30;;;;;;;40.40;31.77;;;9.50;99.90;;;;;;5048750;28;20032;-64
2023/03/03 13:11:07;;;;;;;35.53;28.63;;;9.60;99.90;;;;;;5031656;28;20536;-66
2023/03/03 13:13:45;;;;;;;37.53;30.02;;;9.70;99.90;;;;;;5032301;28;20026;-66
2023/03/03 13:16:23;;;;;;;37.30;29.88;;;9.80;99.90;;;;;;5033857;28;20022;-61
2023/03/03 13:19:18;;;;;;;36.60;30.20;;;9.80;99.90;;;;;;5033043;28;20391;-66
2023/03/03 13:22:01;;;;;;;40.42;31.33;;;9.80;99.90;;;;;;5030471;28;20113;-67
2023/03/03 13:24:40;;;;;;;41.45;32.63;;;9.70;99.90;;;;;;5031485;28;20100;-66
2023/03/03 13:27:12;;;;;;;52.78;40.35;;;9.50;99.90;;;;;;5031576;28;20030;-65
2023/03/03 13:29:47;;;;;;;40.40;31.38;;;9.20;99.90;;;;;;5030416;28;20383;-62
2023/03/03 13:32:28;;;;;;;39.63;31.48;;;9.20;99.90;;;;;;5028606;28;20028;-65
2023/03/03 13:35:20;;;;;;;47.78;36.53;;;9.50;99.90;;;;;;5030546;28;20171;-69
2023/03/03 13:37:51;;;;;;;43.28;33.85;;;9.50;99.90;;;;;;5030553;28;20550;-64
2023/03/03 13:40:22;;;;;;;44.17;33.38;;;9.50;99.90;;;;;;5030814;28;20053;-63
2023/03/03 13:43:16;;;;;;;45.25;34.17;;;9.50;99.90;;;;;;5032238;28;20030;-70
2023/03/03 13:45:44;;;;;;;;;;;9.40;99.90;;;;;;5032037;28;20018;-63
2023/03/03 13:48:25;;;;;;;58.83;42.42;;;9.40;99.90;;;;;;5032160;28;19996;-63
2023/03/03 13:51:01;;;;;;;51.83;40.28;;;9.20;99.90;;;;;;5031235;28;20033;-65
2023/03/03 13:53:36;;;;;;;52.55;39.45;;;9.20;99.90;;;;;;5031972;28;20024;-65
2023/03/03 13:56:43;;;;;;;47.95;36.78;;;9.20;99.90;;;;;;5031061;28;20033;-62
2023/03/03 13:59:17;;;;;;;55.25;40.15;;;9.30;99.90;;;;;;5029162;28;20084;-67
2023/03/03 14:02:00;;;;;;;59.75;41.53;;;9.10;99.90;;;;;;5030051;28;20045;-69
2023/03/03 14:04:38;;;;;;;81.25;54.45;;;8.90;99.90;;;;;;5030534;28;20028;-68
2023/03/03 14:07:13;;;;;;;63.65;42.55;;;9.00;99.90;;;;;;5030635;28;20096;-67
2023/03/03 14:09:50;;;;;;;55.10;39.78;;;8.90;99.90;;;;;;5030678;28;20022;-65
2023/03/03 14:12:31;;;;;;;46.90;33.25;;;8.80;99.90;;;;;;5032019;28;20025;-65
2023/03/03 14:15:10;;;;;;;49.45;35.22;;;8.90;99.90;;;;;;5032042;28;20021;-71
2023/03/03 14:18:04;;;;;;;47.38;35.33;;;8.90;99.90;;;;;;5032402;28;20028;-61
2023/03/03 14:20:59;;;;;;;53.80;39.92;;;8.80;99.90;;;;;;5032750;28;20025;-65
2023/03/03 14:23:27;;;;;;;56.70;40.22;;;8.50;99.90;;;;;;5032585;28;20197;-63
2023/03/03 14:26:07;;;;;;;54.88;41.33;;;8.50;99.90;;;;;;5032857;28;20029;-62
2023/03/03 14:28:39;;;;;;;69.63;49.80;;;8.50;99.90;;;;;;5032952;28;20017;-68
2023/03/03 14:31:20;;;;;;;80.70;56.97;;;8.60;99.90;;;;;;5031648;28;20051;-67
2023/03/03 14:34:35;;;;;;;64.13;48.05;;;8.60;99.90;;;;;;5032965;28;20022;-63
2023/03/03 14:37:37;;;;;;;65.43;49.33;;;8.60;99.90;;;;;;5032262;28;20160;-68
2023/03/03 14:40:08;;;;;;;72.10;54.22;;;8.70;99.90;;;;;;5032918;28;20030;-67
2023/03/03 14:42:47;;;;;;;56.85;44.92;;;8.70;99.90;;;;;;5032643;28;20109;-62
2023/03/03 14:45:37;;;;;;;63.83;46.00;;;8.60;99.90;;;;;;5036144;28;20429;-62
2023/03/03 14:48:25;;;;;;;54.58;43.05;;;8.70;99.90;;;;;;5036702;28;20494;-64
2023/03/03 14:51:22;;;;;;;53.25;41.58;;;8.80;99.90;;;;;;5036387;28;20083;-64
2023/03/03 14:53:48;;;;;;;58.13;43.00;;;8.90;99.90;;;;;;5035920;28;20044;-59
2023/03/03 14:56:26;;;;;;;76.50;53.33;;;8.80;99.90;;;;;;5035916;28;20360;-64
2023/03/03 14:59:11;;;;;;;74.28;52.60;;;8.80;99.90;;;;;;5036282;28;20486;-66
2023/03/03 15:01:37;;;;;;;87.32;61.28;;;8.70;99.90;;;;;;5036278;28;20032;-63
2023/03/03 15:04:12;;;;;;;72.32;53.70;;;8.60;99.90;;;;;;5036285;28;20025;-68
2023/03/03 15:06:43;;;;;;;74.40;52.58;;;8.60;99.90;;;;;;5036199;28;20383;-64
2023/03/03 15:09:35;;;;;;;68.05;51.60;;;8.70;99.90;;;;;;5036235;28;20032;-67
2023/03/03 15:12:15;;;;;;;63.33;46.22;;;8.70;99.90;;;;;;5036071;28;20030;-63
2023/03/03 15:14:45;;;;;;;61.55;46.35;;;8.70;99.90;;;;;;5036023;28;20029;-65
2023/03/03 15:17:16;;;;;;;74.90;54.60;;;8.80;99.90;;;;;;5035879;28;20033;-69
2023/03/03 15:20:07;;;;;;;78.78;55.58;;;8.90;99.90;;;;;;5035818;28;20036;-63
2023/03/03 15:22:46;;;;;;;80.32;56.67;;;8.90;99.90;;;;;;5035815;28;20029;-58
2023/03/03 15:25:24;;;;;;;94.55;64.47;;;8.90;99.90;;;;;;5035838;28;20022;-60
2023/03/03 15:28:21;;;;;;;77.18;58.10;;;8.90;99.90;;;;;;5035707;28;20028;-64
2023/03/03 15:30:56;;;;;;;74.82;55.80;;;8.90;99.90;;;;;;5034896;28;20066;-61
2023/03/03 15:33:39;;;;;;;65.80;49.13;;;9.00;99.90;;;;;;5035630;28;20026;-61
2023/03/03 15:36:40;;;;;;;89.45;61.53;;;9.00;99.90;;;;;;5035649;28;20417;-69
2023/03/03 15:39:27;;;;;;;83.25;60.60;;;8.90;99.90;;;;;;5035664;28;20025;-66
2023/03/03 15:42:08;;;;;;;78.53;55.95;;;8.70;99.90;;;;;;5035610;28;20021;-66
